sensor_id;sensor_type;location;lat;lon;timestamp;temperature;humidity
14873;DHT22;7528;48.576;19.122;2024-02-15T00:04:57;8.60;65.60
14873;DHT22;7528;48.576;19.122;2024-02-15T00:10:01;8.60;65.90
14873;DHT22;7528;48.576;19.122;2024-02-15T00:15:05;8.60;66.20
14873;DHT22;7528;48.576;19.122;2024-02-15T00:20:08;8.60;66.00
14873;DHT22;7528;48.576;19.122;2024-02-15T00:25:12;8.60;66.10
14873;DHT22;7528;48.576;19.122;2024-02-15T00:30:14;8.60;67.60
14873;DHT22;7528;48.576;19.122;2024-02-15T00:35:17;8.60;67.20
14873;DHT22;7528;48.576;19.122;2024-02-15T00:40:21;8.60;66.80
14873;DHT22;7528;48.576;19.122;2024-02-15T00:45:23;8.50;67.30
14873;DHT22;7528;48.576;19.122;2024-02-15T00:50:26;8.50;67.50
14873;DHT22;7528;48.576;19.122;2024-02-15T00:55:29;8.50;67.40
14873;DHT22;7528;48.576;19.122;2024-02-15T01:00:32;8.60;67.40
14873;DHT22;7528;48.576;19.122;2024-02-15T01:05:34;8.70;67.20
14873;DHT22;7528;48.576;19.122;2024-02-15T01:10:38;8.70;66.80
14873;DHT22;7528;48.576;19.122;2024-02-15T01:15:40;8.70;67.40
14873;DHT22;7528;48.576;19.122;2024-02-15T01:20:43;8.60;67.50
14873;DHT22;7528;48.576;19.122;2024-02-15T01:25:47;8.60;67.90
14873;DHT22;7528;48.576;19.122;2024-02-15T01:30:49;8.60;67.70
14873;DHT22;7528;48.576;19.122;2024-02-15T01:35:52;8.60;67.60
14873;DHT22;7528;48.576;19.122;2024-02-15T01:40:55;8.70;67.00
14873;DHT22;7528;48.576;19.122;2024-02-15T01:45:58;8.70;68.00
14873;DHT22;7528;48.576;19.122;2024-02-15T01:51:05;8.70;68.20
14873;DHT22;7528;48.576;19.122;2024-02-15T01:56:09;8.60;68.40
14873;DHT22;7528;48.576;19.122;2024-02-15T02:01:14;8.60;69.10
14873;DHT22;7528;48.576;19.122;2024-02-15T02:06:17;8.60;68.90
14873;DHT22;7528;48.576;19.122;2024-02-15T02:11:21;8.60;68.90
14873;DHT22;7528;48.576;19.122;2024-02-15T02:16:24;8.60;68.80
14873;DHT22;7528;48.576;19.122;2024-02-15T02:21:28;8.60;68.90
14873;DHT22;7528;48.576;19.122;2024-02-15T02:26:32;8.70;68.30
14873;DHT22;7528;48.576;19.122;2024-02-15T02:31:34;8.60;68.40
14873;DHT22;7528;48.576;19.122;2024-02-15T02:36:36;8.60;68.30
14873;DHT22;7528;48.576;19.122;2024-02-15T02:41:40;8.60;68.30
14873;DHT22;7528;48.576;19.122;2024-02-15T02:46:43;8.50;69.60
14873;DHT22;7528;48.576;19.122;2024-02-15T02:51:45;8.50;69.90
14873;DHT22;7528;48.576;19.122;2024-02-15T02:56:49;8.50;70.10
14873;DHT22;7528;48.576;19.122;2024-02-15T03:01:52;8.50;70.00
14873;DHT22;7528;48.576;19.122;2024-02-15T03:06:57;8.50;70.30
14873;DHT22;7528;48.576;19.122;2024-02-15T03:12:01;8.50;69.60
14873;DHT22;7528;48.576;19.122;2024-02-15T03:17:03;8.60;69.90
14873;DHT22;7528;48.576;19.122;2024-02-15T03:22:07;8.60;69.90
14873;DHT22;7528;48.576;19.122;2024-02-15T03:27:10;8.60;70.40
14873;DHT22;7528;48.576;19.122;2024-02-15T03:32:13;8.50;70.90
14873;DHT22;7528;48.576;19.122;2024-02-15T03:37:15;8.50;70.30
14873;DHT22;7528;48.576;19.122;2024-02-15T03:42:20;8.50;71.00
14873;DHT22;7528;48.576;19.122;2024-02-15T03:47:22;8.60;71.50
14873;DHT22;7528;48.576;19.122;2024-02-15T03:52:25;8.50;71.90
14873;DHT22;7528;48.576;19.122;2024-02-15T03:57:28;8.60;71.70
14873;DHT22;7528;48.576;19.122;2024-02-15T04:02:31;8.70;70.40
14873;DHT22;7528;48.576;19.122;2024-02-15T04:07:33;8.70;70.30
14873;DHT22;7528;48.576;19.122;2024-02-15T04:12:37;8.60;70.50
14873;DHT22;7528;48.576;19.122;2024-02-15T04:17:42;8.70;70.50
14873;DHT22;7528;48.576;19.122;2024-02-15T04:22:46;8.70;70.20
14873;DHT22;7528;48.576;19.122;2024-02-15T04:27:49;8.70;70.30
14873;DHT22;7528;48.576;19.122;2024-02-15T04:32:52;8.70;70.50
14873;DHT22;7528;48.576;19.122;2024-02-15T04:37:54;8.70;70.80
14873;DHT22;7528;48.576;19.122;2024-02-15T04:42:58;8.70;70.80
14873;DHT22;7528;48.576;19.122;2024-02-15T04:48:03;8.70;70.80
14873;DHT22;7528;48.576;19.122;2024-02-15T04:53:06;8.70;70.80
14873;DHT22;7528;48.576;19.122;2024-02-15T04:58:10;8.80;70.20
14873;DHT22;7528;48.576;19.122;2024-02-15T05:03:12;8.80;70.10
14873;DHT22;7528;48.576;19.122;2024-02-15T05:08:15;8.80;70.40
14873;DHT22;7528;48.576;19.122;2024-02-15T05:13:18;8.70;70.70
14873;DHT22;7528;48.576;19.122;2024-02-15T05:18:22;8.80;70.90
14873;DHT22;7528;48.576;19.122;2024-02-15T05:23:24;8.80;70.90
14873;DHT22;7528;48.576;19.122;2024-02-15T05:28:27;8.70;71.10
14873;DHT22;7528;48.576;19.122;2024-02-15T05:33:30;8.70;71.10
14873;DHT22;7528;48.576;19.122;2024-02-15T05:38:33;8.70;71.30
14873;DHT22;7528;48.576;19.122;2024-02-15T05:43:38;8.70;71.20
14873;DHT22;7528;48.576;19.122;2024-02-15T05:48:42;8.80;71.10
14873;DHT22;7528;48.576;19.122;2024-02-15T05:53:45;8.80;70.90
14873;DHT22;7528;48.576;19.122;2024-02-15T05:58:49;8.90;70.50
14873;DHT22;7528;48.576;19.122;2024-02-15T06:03:51;8.90;69.70
14873;DHT22;7528;48.576;19.122;2024-02-15T06:08:55;8.90;69.60
14873;DHT22;7528;48.576;19.122;2024-02-15T06:14:02;8.80;69.50
14873;DHT22;7528;48.576;19.122;2024-02-15T06:19:04;8.80;69.50
14873;DHT22;7528;48.576;19.122;2024-02-15T06:24:07;8.90;68.60
14873;DHT22;7528;48.576;19.122;2024-02-15T06:29:11;8.80;68.80
14873;DHT22;7528;48.576;19.122;2024-02-15T06:34:31;8.80;68.70
14873;DHT22;7528;48.576;19.122;2024-02-15T06:39:50;8.90;69.20
14873;DHT22;7528;48.576;19.122;2024-02-15T06:44:54;9.00;68.80
14873;DHT22;7528;48.576;19.122;2024-02-15T06:49:58;9.10;67.80
14873;DHT22;7528;48.576;19.122;2024-02-15T06:55:01;9.10;67.20
14873;DHT22;7528;48.576;19.122;2024-02-15T07:00:05;9.10;65.40
14873;DHT22;7528;48.576;19.122;2024-02-15T07:05:10;9.10;65.00
14873;DHT22;7528;48.576;19.122;2024-02-15T07:10:12;9.10;65.30
14873;DHT22;7528;48.576;19.122;2024-02-15T07:15:18;9.10;64.80
14873;DHT22;7528;48.576;19.122;2024-02-15T07:20:21;9.10;64.50
14873;DHT22;7528;48.576;19.122;2024-02-15T07:25:24;9.20;64.30
14873;DHT22;7528;48.576;19.122;2024-02-15T07:30:27;9.20;63.60
14873;DHT22;7528;48.576;19.122;2024-02-15T07:35:30;9.10;63.90
14873;DHT22;7528;48.576;19.122;2024-02-15T07:40:34;9.20;63.20
14873;DHT22;7528;48.576;19.122;2024-02-15T07:45:38;9.20;62.90
14873;DHT22;7528;48.576;19.122;2024-02-15T07:50:40;9.20;62.40
14873;DHT22;7528;48.576;19.122;2024-02-15T07:55:44;9.30;62.50
14873;DHT22;7528;48.576;19.122;2024-02-15T08:00:48;9.30;62.40
14873;DHT22;7528;48.576;19.122;2024-02-15T08:05:50;9.40;61.90
14873;DHT22;7528;48.576;19.122;2024-02-15T08:10:53;9.40;61.50
14873;DHT22;7528;48.576;19.122;2024-02-15T08:15:57;9.40;61.30
14873;DHT22;7528;48.576;19.122;2024-02-15T08:20:59;9.40;61.50
14873;DHT22;7528;48.576;19.122;2024-02-15T08:26:01;9.50;61.40
14873;DHT22;7528;48.576;19.122;2024-02-15T08:31:05;9.50;61.60
14873;DHT22;7528;48.576;19.122;2024-02-15T08:36:08;9.60;61.40
14873;DHT22;7528;48.576;19.122;2024-02-15T08:41:12;9.60;60.80
14873;DHT22;7528;48.576;19.122;2024-02-15T08:46:16;9.70;61.10
14873;DHT22;7528;48.576;19.122;2024-02-15T08:51:18;9.70;61.10
14873;DHT22;7528;48.576;19.122;2024-02-15T08:56:21;9.70;61.70
14873;DHT22;7528;48.576;19.122;2024-02-15T09:01:26;9.70;59.90
14873;DHT22;7528;48.576;19.122;2024-02-15T09:06:28;9.90;59.60
14873;DHT22;7528;48.576;19.122;2024-02-15T09:11:31;10.00;59.10
14873;DHT22;7528;48.576;19.122;2024-02-15T09:16:37;10.00;59.20
14873;DHT22;7528;48.576;19.122;2024-02-15T09:21:40;10.00;58.60
14873;DHT22;7528;48.576;19.122;2024-02-15T09:26:42;10.00;58.50
14873;DHT22;7528;48.576;19.122;2024-02-15T09:31:47;10.20;58.80
14873;DHT22;7528;48.576;19.122;2024-02-15T09:36:50;10.30;58.40
14873;DHT22;7528;48.576;19.122;2024-02-15T09:41:53;10.50;58.40
14873;DHT22;7528;48.576;19.122;2024-02-15T09:47:02;10.50;58.30
14873;DHT22;7528;48.576;19.122;2024-02-15T09:52:09;10.60;58.10
14873;DHT22;7528;48.576;19.122;2024-02-15T09:57:12;10.80;57.10
14873;DHT22;7528;48.576;19.122;2024-02-15T10:02:16;10.80;57.40
14873;DHT22;7528;48.576;19.122;2024-02-15T10:07:19;10.80;57.20
14873;DHT22;7528;48.576;19.122;2024-02-15T10:12:22;10.70;56.90
14873;DHT22;7528;48.576;19.122;2024-02-15T10:17:29;10.80;56.80
14873;DHT22;7528;48.576;19.122;2024-02-15T10:22:36;10.80;57.10
14873;DHT22;7528;48.576;19.122;2024-02-15T10:27:39;10.80;57.00
14873;DHT22;7528;48.576;19.122;2024-02-15T10:32:43;11.00;57.20
14873;DHT22;7528;48.576;19.122;2024-02-15T10:37:47;11.00;56.60
14873;DHT22;7528;48.576;19.122;2024-02-15T10:42:51;10.90;56.70
14873;DHT22;7528;48.576;19.122;2024-02-15T10:47:55;10.80;56.90
14873;DHT22;7528;48.576;19.122;2024-02-15T10:52:58;11.00;58.10
14873;DHT22;7528;48.576;19.122;2024-02-15T10:58:01;11.10;56.80
14873;DHT22;7528;48.576;19.122;2024-02-15T11:03:08;11.10;56.70
14873;DHT22;7528;48.576;19.122;2024-02-15T11:08:14;11.30;56.20
14873;DHT22;7528;48.576;19.122;2024-02-15T11:13:17;11.70;55.50
14873;DHT22;7528;48.576;19.122;2024-02-15T11:18:46;12.00;54.50
14873;DHT22;7528;48.576;19.122;2024-02-15T11:23:52;12.30;54.70
14873;DHT22;7528;48.576;19.122;2024-02-15T11:28:55;12.50;53.90
14873;DHT22;7528;48.576;19.122;2024-02-15T11:33:59;12.60;53.10
14873;DHT22;7528;48.576;19.122;2024-02-15T11:39:40;12.60;53.10
14873;DHT22;7528;48.576;19.122;2024-02-15T11:44:43;12.70;53.00
14873;DHT22;7528;48.576;19.122;2024-02-15T11:49:46;12.90;52.20
14873;DHT22;7528;48.576;19.122;2024-02-15T11:54:49;12.90;52.30
14873;DHT22;7528;48.576;19.122;2024-02-15T11:59:51;12.80;52.30
14873;DHT22;7528;48.576;19.122;2024-02-15T12:05:13;12.80;52.20
14873;DHT22;7528;48.576;19.122;2024-02-15T12:10:29;13.00;52.00
14873;DHT22;7528;48.576;19.122;2024-02-15T12:15:58;13.10;51.50
14873;DHT22;7528;48.576;19.122;2024-02-15T12:21:23;13.10;51.60
14873;DHT22;7528;48.576;19.122;2024-02-15T12:26:27;13.20;51.60
14873;DHT22;7528;48.576;19.122;2024-02-15T12:31:36;13.30;51.30
14873;DHT22;7528;48.576;19.122;2024-02-15T12:36:40;13.40;51.30
14873;DHT22;7528;48.576;19.122;2024-02-15T12:41:48;13.40;51.20
14873;DHT22;7528;48.576;19.122;2024-02-15T12:46:54;13.50;50.90
14873;DHT22;7528;48.576;19.122;2024-02-15T12:57:36;13.70;50.40
14873;DHT22;7528;48.576;19.122;2024-02-15T13:02:41;13.70;50.80
14873;DHT22;7528;48.576;19.122;2024-02-15T13:07:44;13.70;50.80
14873;DHT22;7528;48.576;19.122;2024-02-15T13:12:48;13.60;50.90
14873;DHT22;7528;48.576;19.122;2024-02-15T13:17:51;13.70;51.30
14873;DHT22;7528;48.576;19.122;2024-02-15T13:22:53;13.70;51.10
14873;DHT22;7528;48.576;19.122;2024-02-15T13:28:02;13.70;51.20
14873;DHT22;7528;48.576;19.122;2024-02-15T13:33:05;13.70;51.60
14873;DHT22;7528;48.576;19.122;2024-02-15T13:38:08;13.70;52.20
14873;DHT22;7528;48.576;19.122;2024-02-15T13:43:16;13.80;51.50
14873;DHT22;7528;48.576;19.122;2024-02-15T13:48:19;13.70;51.90
14873;DHT22;7528;48.576;19.122;2024-02-15T13:53:21;13.80;52.40
14873;DHT22;7528;48.576;19.122;2024-02-15T13:58:25;13.80;51.90
14873;DHT22;7528;48.576;19.122;2024-02-15T14:03:27;13.80;51.90
14873;DHT22;7528;48.576;19.122;2024-02-15T14:08:30;13.90;52.20
14873;DHT22;7528;48.576;19.122;2024-02-15T14:13:33;13.90;53.00
14873;DHT22;7528;48.576;19.122;2024-02-15T14:18:36;13.90;52.00
14873;DHT22;7528;48.576;19.122;2024-02-15T14:23:40;13.90;51.70
14873;DHT22;7528;48.576;19.122;2024-02-15T14:28:44;13.90;52.50
14873;DHT22;7528;48.576;19.122;2024-02-15T14:33:47;14.00;52.60
14873;DHT22;7528;48.576;19.122;2024-02-15T14:38:51;13.90;52.10
14873;DHT22;7528;48.576;19.122;2024-02-15T14:43:56;13.90;52.50
14873;DHT22;7528;48.576;19.122;2024-02-15T14:48:59;13.80;52.30
14873;DHT22;7528;48.576;19.122;2024-02-15T14:54:01;13.80;53.10
14873;DHT22;7528;48.576;19.122;2024-02-15T14:59:06;13.70;53.10
14873;DHT22;7528;48.576;19.122;2024-02-15T15:04:08;13.80;53.00
14873;DHT22;7528;48.576;19.122;2024-02-15T15:09:12;13.80;52.90
14873;DHT22;7528;48.576;19.122;2024-02-15T15:14:33;13.70;53.10
14873;DHT22;7528;48.576;19.122;2024-02-15T15:19:36;13.70;53.80
14873;DHT22;7528;48.576;19.122;2024-02-15T15:24:38;13.70;53.80
14873;DHT22;7528;48.576;19.122;2024-02-15T15:29:43;13.60;54.10
14873;DHT22;7528;48.576;19.122;2024-02-15T15:34:45;13.70;54.20
14873;DHT22;7528;48.576;19.122;2024-02-15T15:39:48;13.70;54.10
14873;DHT22;7528;48.576;19.122;2024-02-15T15:44:51;13.70;54.00
14873;DHT22;7528;48.576;19.122;2024-02-15T15:49:54;13.70;54.10
14873;DHT22;7528;48.576;19.122;2024-02-15T15:54:59;13.60;54.60
14873;DHT22;7528;48.576;19.122;2024-02-15T16:00:04;13.50;55.00
14873;DHT22;7528;48.576;19.122;2024-02-15T16:05:08;13.50;55.40
14873;DHT22;7528;48.576;19.122;2024-02-15T16:10:13;13.50;55.20
14873;DHT22;7528;48.576;19.122;2024-02-15T16:15:17;13.60;55.80
14873;DHT22;7528;48.576;19.122;2024-02-15T16:20:19;13.50;55.70
14873;DHT22;7528;48.576;19.122;2024-02-15T16:25:22;13.40;55.40
14873;DHT22;7528;48.576;19.122;2024-02-15T16:30:26;13.40;56.50
14873;DHT22;7528;48.576;19.122;2024-02-15T16:35:28;13.30;56.90
14873;DHT22;7528;48.576;19.122;2024-02-15T16:40:31;13.30;56.40
14873;DHT22;7528;48.576;19.122;2024-02-15T16:45:34;13.30;56.70
14873;DHT22;7528;48.576;19.122;2024-02-15T16:50:38;13.20;56.90
14873;DHT22;7528;48.576;19.122;2024-02-15T16:55:42;13.20;57.00
14873;DHT22;7528;48.576;19.122;2024-02-15T17:00:45;13.10;57.10
14873;DHT22;7528;48.576;19.122;2024-02-15T17:05:48;13.00;58.10
14873;DHT22;7528;48.576;19.122;2024-02-15T17:10:50;12.90;58.10
14873;DHT22;7528;48.576;19.122;2024-02-15T17:15:54;12.90;57.90
14873;DHT22;7528;48.576;19.122;2024-02-15T17:20:56;12.90;58.30
14873;DHT22;7528;48.576;19.122;2024-02-15T17:25:58;12.80;57.90
14873;DHT22;7528;48.576;19.122;2024-02-15T17:31:02;12.80;58.00
14873;DHT22;7528;48.576;19.122;2024-02-15T17:36:08;12.80;58.70
14873;DHT22;7528;48.576;19.122;2024-02-15T17:41:12;12.80;58.20
14873;DHT22;7528;48.576;19.122;2024-02-15T17:46:15;12.70;57.80
14873;DHT22;7528;48.576;19.122;2024-02-15T17:51:18;12.70;59.00
14873;DHT22;7528;48.576;19.122;2024-02-15T17:56:21;12.60;58.90
14873;DHT22;7528;48.576;19.122;2024-02-15T18:01:26;12.60;59.40
14873;DHT22;7528;48.576;19.122;2024-02-15T18:06:28;12.50;59.60
14873;DHT22;7528;48.576;19.122;2024-02-15T18:11:31;12.40;60.80
14873;DHT22;7528;48.576;19.122;2024-02-15T18:16:36;12.40;60.80
14873;DHT22;7528;48.576;19.122;2024-02-15T18:21:38;12.40;60.90
14873;DHT22;7528;48.576;19.122;2024-02-15T18:26:41;12.30;61.30
14873;DHT22;7528;48.576;19.122;2024-02-15T18:31:45;12.30;62.30
14873;DHT22;7528;48.576;19.122;2024-02-15T18:36:47;12.40;62.50
14873;DHT22;7528;48.576;19.122;2024-02-15T18:41:50;12.30;62.10
14873;DHT22;7528;48.576;19.122;2024-02-15T18:46:53;12.30;62.50
14873;DHT22;7528;48.576;19.122;2024-02-15T18:51:56;12.40;62.70
14873;DHT22;7528;48.576;19.122;2024-02-15T18:56:58;12.40;62.70
14873;DHT22;7528;48.576;19.122;2024-02-15T19:02:04;12.40;63.00
14873;DHT22;7528;48.576;19.122;2024-02-15T19:07:08;12.30;63.80
14873;DHT22;7528;48.576;19.122;2024-02-15T19:12:10;12.20;63.70
14873;DHT22;7528;48.576;19.122;2024-02-15T19:17:14;12.20;63.80
14873;DHT22;7528;48.576;19.122;2024-02-15T19:22:19;12.20;64.30
14873;DHT22;7528;48.576;19.122;2024-02-15T19:27:23;12.20;64.40
14873;DHT22;7528;48.576;19.122;2024-02-15T19:32:27;12.20;64.80
14873;DHT22;7528;48.576;19.122;2024-02-15T19:37:29;12.20;65.00
14873;DHT22;7528;48.576;19.122;2024-02-15T19:42:33;12.20;64.70
14873;DHT22;7528;48.576;19.122;2024-02-15T19:47:37;12.10;64.50
14873;DHT22;7528;48.576;19.122;2024-02-15T19:52:40;12.10;64.30
14873;DHT22;7528;48.576;19.122;2024-02-15T19:57:42;12.10;63.50
14873;DHT22;7528;48.576;19.122;2024-02-15T20:02:46;12.10;64.10
14873;DHT22;7528;48.576;19.122;2024-02-15T20:07:49;12.10;64.10
14873;DHT22;7528;48.576;19.122;2024-02-15T20:12:51;12.10;63.80
14873;DHT22;7528;48.576;19.122;2024-02-15T20:17:56;12.00;64.80
14873;DHT22;7528;48.576;19.122;2024-02-15T20:22:58;11.80;65.30
14873;DHT22;7528;48.576;19.122;2024-02-15T20:28:00;11.90;66.10
14873;DHT22;7528;48.576;19.122;2024-02-15T20:33:05;12.00;65.70
14873;DHT22;7528;48.576;19.122;2024-02-15T20:38:15;12.00;65.90
14873;DHT22;7528;48.576;19.122;2024-02-15T20:43:19;11.90;66.20
14873;DHT22;7528;48.576;19.122;2024-02-15T20:48:23;12.00;66.20
14873;DHT22;7528;48.576;19.122;2024-02-15T20:53:26;12.00;66.00
14873;DHT22;7528;48.576;19.122;2024-02-15T20:58:28;12.00;65.60
14873;DHT22;7528;48.576;19.122;2024-02-15T21:03:32;11.90;65.00
14873;DHT22;7528;48.576;19.122;2024-02-15T21:08:35;11.90;65.70
14873;DHT22;7528;48.576;19.122;2024-02-15T21:13:38;11.90;65.90
14873;DHT22;7528;48.576;19.122;2024-02-15T21:18:44;11.90;65.80
14873;DHT22;7528;48.576;19.122;2024-02-15T21:23:47;11.90;65.30
14873;DHT22;7528;48.576;19.122;2024-02-15T21:28:49;11.90;65.30
14873;DHT22;7528;48.576;19.122;2024-02-15T21:33:53;12.00;65.70
14873;DHT22;7528;48.576;19.122;2024-02-15T21:38:57;12.00;65.80
14873;DHT22;7528;48.576;19.122;2024-02-15T21:43:59;11.90;65.40
14873;DHT22;7528;48.576;19.122;2024-02-15T21:49:03;11.90;65.80
14873;DHT22;7528;48.576;19.122;2024-02-15T21:54:07;12.00;65.90
14873;DHT22;7528;48.576;19.122;2024-02-15T21:59:10;12.00;65.80
14873;DHT22;7528;48.576;19.122;2024-02-15T22:04:13;11.90;66.00
14873;DHT22;7528;48.576;19.122;2024-02-15T22:09:16;11.90;65.90
14873;DHT22;7528;48.576;19.122;2024-02-15T22:14:18;11.90;66.00
14873;DHT22;7528;48.576;19.122;2024-02-15T22:19:22;11.90;66.20
14873;DHT22;7528;48.576;19.122;2024-02-15T22:24:24;11.90;67.00
14873;DHT22;7528;48.576;19.122;2024-02-15T22:29:27;11.90;67.20
14873;DHT22;7528;48.576;19.122;2024-02-15T22:34:30;11.80;67.50
14873;DHT22;7528;48.576;19.122;2024-02-15T22:39:33;11.70;67.60
14873;DHT22;7528;48.576;19.122;2024-02-15T22:44:35;11.70;67.10
14873;DHT22;7528;48.576;19.122;2024-02-15T22:49:39;11.80;67.50
14873;DHT22;7528;48.576;19.122;2024-02-15T22:54:42;11.70;67.40
14873;DHT22;7528;48.576;19.122;2024-02-15T22:59:49;11.70;67.30
14873;DHT22;7528;48.576;19.122;2024-02-15T23:04:53;11.70;67.50
14873;DHT22;7528;48.576;19.122;2024-02-15T23:09:56;11.70;67.90
14873;DHT22;7528;48.576;19.122;2024-02-15T23:14:58;11.70;67.90
14873;DHT22;7528;48.576;19.122;2024-02-15T23:20:02;11.70;67.50
14873;DHT22;7528;48.576;19.122;2024-02-15T23:25:06;11.70;67.10
14873;DHT22;7528;48.576;19.122;2024-02-15T23:30:09;11.60;67.00
14873;DHT22;7528;48.576;19.122;2024-02-15T23:35:13;11.60;67.30
14873;DHT22;7528;48.576;19.122;2024-02-15T23:40:15;11.60;67.90
14873;DHT22;7528;48.576;19.122;2024-02-15T23:45:24;11.50;68.00
14873;DHT22;7528;48.576;19.122;2024-02-15T23:50:30;11.50;67.90
14873;DHT22;7528;48.576;19.122;2024-02-15T23:55:33;11.50;68.00
